createdAt,value
2018-11-03T00:00:54.008Z,102920.55
2018-11-03T00:03:23.069Z,102920.17
2018-11-03T00:05:52.097Z,102923.52
2018-11-03T00:08:22.123Z,102927.33
2018-11-03T00:11:07.959Z,102916.38
2018-11-03T00:13:37.022Z,102913.86
2018-11-03T00:16:06.265Z,102906.28
2018-11-03T00:18:36.358Z,102909.66
2018-11-03T00:21:05.478Z,102912.19
2018-11-03T00:23:34.514Z,102907.54
2018-11-03T00:26:03.545Z,102905.45
2018-11-03T00:28:32.568Z,102904.59
2018-11-03T00:31:01.627Z,102903.32
2018-11-03T00:33:30.687Z,102905.01
2018-11-03T00:35:59.763Z,102903.32
2018-11-03T00:38:28.816Z,102901.62
2018-11-03T00:40:57.870Z,102905.83
2018-11-03T00:43:26.915Z,102907.94
2018-11-03T00:45:55.943Z,102913.45
2018-11-03T00:48:24.996Z,102907.95
2018-11-03T00:50:54.045Z,102906.25
2018-11-03T00:53:23.087Z,102912.14
2018-11-03T00:55:52.115Z,102911.69
2018-11-03T00:58:21.157Z,102915.47
2018-11-03T01:00:50.185Z,102914.66
2018-11-03T01:03:19.231Z,102909.55
2018-11-03T01:05:48.283Z,102907.01
2018-11-03T01:08:17.321Z,102910.39
2018-11-03T01:10:46.385Z,102904.87
2018-11-03T01:13:15.459Z,102907.41
2018-11-03T01:15:44.478Z,102899.83
2018-11-03T01:18:13.502Z,102903.60
2018-11-03T01:20:42.535Z,102901.48
2018-11-03T01:23:11.573Z,102909.06
2018-11-03T01:25:40.630Z,102916.19
2018-11-03T01:28:09.677Z,102912.80
2018-11-03T01:30:38.728Z,102902.67
2018-11-03T01:33:07.785Z,102903.91
2018-11-03T01:35:36.812Z,102907.28
2018-11-03T01:38:05.997Z,102904.34
2018-11-03T01:40:35.043Z,102903.48
2018-11-03T01:43:04.083Z,102911.45
2018-11-03T01:45:33.125Z,102901.73
2018-11-03T01:48:02.191Z,102900.87
2018-11-03T01:51:22.164Z,102899.17
2018-11-03T01:53:51.180Z,102897.91
2018-11-03T01:56:20.234Z,102898.76
2018-11-03T01:58:49.314Z,102895.77
2018-11-03T02:01:19.267Z,102894.92
2018-11-03T02:03:48.330Z,102892.36
2018-11-03T02:06:17.349Z,102891.07
2018-11-03T02:08:46.395Z,102889.80
2018-11-03T02:11:15.456Z,102888.13
2018-11-03T02:13:44.507Z,102884.73
2018-11-03T02:16:13.551Z,102882.20
2018-11-03T02:18:42.704Z,102879.27
2018-11-03T02:21:11.795Z,102883.87
2018-11-03T02:23:40.814Z,102883.44
2018-11-03T02:26:09.963Z,102880.06
2018-11-03T02:28:39.006Z,102882.97
2018-11-03T02:31:08.074Z,102886.31
2018-11-03T02:33:37.123Z,102890.09
2018-11-03T02:36:06.179Z,102888.42
2018-11-03T02:38:35.239Z,102889.20
2018-11-03T02:41:04.286Z,102887.47
2018-11-03T02:43:33.347Z,102883.69
2018-11-03T02:46:02.375Z,102887.87
2018-11-03T02:48:31.434Z,102887.44
2018-11-03T02:51:00.460Z,102882.39
2018-11-03T02:53:29.522Z,102893.30
2018-11-03T02:55:58.577Z,102888.25
2018-11-03T02:58:27.638Z,102887.36
2018-11-03T03:00:56.686Z,102889.48
2018-11-03T03:03:25.757Z,102887.36
2018-11-03T03:05:54.803Z,102889.03
2018-11-03T03:08:23.850Z,102886.10
2018-11-03T03:10:52.919Z,102889.84
2018-11-03T03:13:21.957Z,102881.02
2018-11-03T03:15:51.016Z,102888.09
2018-11-03T03:18:20.083Z,102892.81
2018-11-03T03:20:49.119Z,102893.59
2018-11-03T03:23:18.183Z,102893.19
2018-11-03T03:25:47.239Z,102887.66
2018-11-03T03:28:16.284Z,102889.72
2018-11-03T03:30:45.413Z,102892.66
2018-11-03T03:33:14.719Z,102891.40
2018-11-03T03:35:43.842Z,102896.05
2018-11-03T03:38:12.918Z,102885.94
2018-11-03T03:40:41.978Z,102887.13
2018-11-03T03:43:11.039Z,102890.49
2018-11-03T03:45:40.085Z,102898.88
2018-11-03T03:48:09.113Z,102901.00
2018-11-03T03:50:38.175Z,102909.78
2018-11-03T03:53:07.402Z,102908.53
2018-11-03T03:55:36.479Z,102912.72
2018-11-03T03:58:05.887Z,102909.33
2018-11-03T04:00:34.912Z,102908.07
2018-11-03T04:03:03.959Z,102911.41
2018-11-03T04:05:33.053Z,102913.11
2018-11-03T04:08:02.110Z,102920.23
2018-11-03T04:10:31.169Z,102915.19
2018-11-03T04:13:05.684Z,102913.11
2018-11-03T04:15:34.826Z,102913.88
2018-11-03T04:18:03.903Z,102916.81
2018-11-03T04:20:32.982Z,102922.30
2018-11-03T04:23:02.051Z,102915.13
2018-11-03T04:25:31.130Z,102918.92
2018-11-03T04:28:00.243Z,102925.22
2018-11-03T04:30:29.309Z,102917.20
2018-11-03T04:32:58.401Z,102921.84
2018-11-03T04:35:27.507Z,102915.09
2018-11-03T04:37:56.624Z,102915.09
2018-11-03T04:40:25.671Z,102917.61
2018-11-03T04:42:54.729Z,102912.16
2018-11-03T04:45:23.848Z,102911.67
2018-11-03T04:47:52.835Z,102909.20
2018-11-03T04:50:21.897Z,102908.73
2018-11-03T04:52:51.033Z,102905.41
2018-11-03T04:55:20.074Z,102907.06
2018-11-03T04:57:49.058Z,102912.06
2018-11-03T05:00:18.179Z,102909.55
2018-11-03T05:02:47.299Z,102899.86
2018-11-03T05:05:16.358Z,102901.13
2018-11-03T05:07:45.410Z,102903.19
2018-11-03T05:10:14.485Z,102913.69
2018-11-03T05:12:43.472Z,102916.21
2018-11-03T05:15:12.568Z,102912.88
2018-11-03T05:17:41.599Z,102912.02
2018-11-03T05:20:10.656Z,102912.06
2018-11-03T05:22:39.774Z,102921.70
2018-11-03T05:25:08.861Z,102917.86
2018-11-03T05:27:37.903Z,102920.39
2018-11-03T05:30:07.428Z,102924.16
2018-11-03T05:32:36.747Z,102924.56
2018-11-03T05:35:06.231Z,102921.15
2018-11-03T05:37:35.286Z,102931.23
2018-11-03T05:40:04.368Z,102927.44
2018-11-03T05:42:33.407Z,102927.39
2018-11-03T05:45:02.438Z,102932.61
2018-11-03T05:47:31.560Z,102929.39
2018-11-03T05:50:00.650Z,102936.22
2018-11-03T05:52:29.666Z,102934.91
2018-11-03T05:54:58.709Z,102937.88
2018-11-03T05:57:27.784Z,102934.97
2018-11-03T05:59:56.850Z,102935.41
2018-11-03T06:02:25.873Z,102932.84
2018-11-03T06:04:54.916Z,102939.23
2018-11-03T06:07:24.219Z,102932.09
2018-11-03T06:09:53.262Z,102935.86
2018-11-03T06:12:22.287Z,102934.21
2018-11-03T06:14:51.326Z,102933.44
2018-11-03T06:17:20.391Z,102940.97
2018-11-03T06:19:49.418Z,102938.45
2018-11-03T06:22:18.552Z,102936.38
2018-11-03T06:24:47.518Z,102935.52
2018-11-03T06:27:17.927Z,102935.91
2018-11-03T06:29:46.939Z,102941.37
2018-11-03T06:32:15.990Z,102939.64
2018-11-03T06:34:45.059Z,102934.25
2018-11-03T06:37:14.110Z,102940.35
2018-11-03T06:39:43.206Z,102945.09
2018-11-03T06:42:12.260Z,102944.29
2018-11-03T06:44:41.276Z,102942.63
2018-11-03T06:47:10.365Z,102944.34
2018-11-03T06:49:39.429Z,102948.02
2018-11-03T06:52:08.500Z,102940.52
2018-11-03T06:54:37.554Z,102944.75
2018-11-03T06:57:06.702Z,102941.42
2018-11-03T06:59:35.929Z,102946.47
2018-11-03T07:02:05.134Z,102948.58
2018-11-03T07:04:34.194Z,102954.48
2018-11-03T07:07:03.369Z,102956.61
2018-11-03T07:09:32.407Z,102958.72
2018-11-03T07:12:02.520Z,102961.30
2018-11-03T07:14:31.518Z,102969.36
2018-11-03T07:17:00.578Z,102969.32
2018-11-03T07:19:29.633Z,102966.86
2018-11-03T07:21:58.750Z,102971.95
2018-11-03T07:24:27.818Z,102968.66
2018-11-03T07:26:56.883Z,102966.14
2018-11-03T07:29:26.233Z,102970.38
2018-11-03T07:31:55.995Z,102962.05
2018-11-03T07:34:25.110Z,102961.23
2018-11-03T07:36:54.186Z,102962.09
2018-11-03T07:39:23.259Z,102958.36
2018-11-03T07:41:52.347Z,102956.32
2018-11-03T07:44:21.398Z,102952.17
2018-11-03T07:46:50.471Z,102957.27
2018-11-03T07:49:22.250Z,102963.98
2018-11-03T07:51:53.793Z,102958.56
2018-11-03T07:54:28.520Z,102953.97
2018-11-03T07:57:01.104Z,102957.38
2018-11-03T07:59:40.199Z,102952.78
2018-11-03T08:02:09.439Z,102947.77
2018-11-03T08:04:45.621Z,102950.70
2018-11-03T08:07:19.451Z,102953.71
2018-11-03T08:09:48.499Z,102956.23
2018-11-03T08:12:17.555Z,102957.45
2018-11-03T08:14:46.608Z,102952.92
2018-11-03T08:17:17.036Z,102954.19
2018-11-03T08:19:46.072Z,102956.78
2018-11-03T08:22:15.693Z,102950.50
2018-11-03T08:24:44.756Z,102946.33
2018-11-03T08:27:13.806Z,102945.95
2018-11-03T08:29:43.880Z,102940.89
2018-11-03T08:32:14.334Z,102937.13
2018-11-03T08:34:43.728Z,102938.06
2018-11-03T08:37:12.872Z,102926.70
2018-11-03T08:39:41.917Z,102928.41
2018-11-03T08:42:10.972Z,102926.78
2018-11-03T08:44:40.027Z,102933.09
2018-11-03T08:47:09.137Z,102936.08
2018-11-03T08:49:39.345Z,102932.32
2018-11-03T08:52:08.436Z,102931.91
2018-11-03T08:54:37.520Z,102941.23
2018-11-03T08:57:06.650Z,102938.77
2018-11-03T08:59:35.791Z,102937.52
2018-11-03T09:02:05.326Z,102946.80
2018-11-03T09:04:34.466Z,102938.39
2018-11-03T09:07:03.613Z,102938.83
2018-11-03T09:09:32.839Z,102935.45
2018-11-03T09:12:01.928Z,102939.66
2018-11-03T09:14:31.052Z,102934.98
2018-11-03T09:17:04.595Z,102941.33
2018-11-03T09:19:36.281Z,102939.16
2018-11-03T09:22:05.425Z,102930.16
2018-11-03T09:24:34.479Z,102928.76
2018-11-03T09:27:03.591Z,102931.17
2018-11-03T09:29:32.654Z,102932.28
2018-11-03T09:32:01.835Z,102924.12
2018-11-03T09:34:30.787Z,102916.67
2018-11-03T09:36:59.836Z,102914.91
2018-11-03T09:39:29.591Z,102921.42
2018-11-03T09:41:58.866Z,102925.02
2018-11-03T09:44:28.682Z,102922.48
2018-11-03T09:46:57.947Z,102920.12
2018-11-03T09:49:27.021Z,102921.01
2018-11-03T09:51:56.055Z,102926.80
2018-11-03T09:54:25.111Z,102933.22
2018-11-03T09:56:54.155Z,102929.72
2018-11-03T09:59:23.251Z,102929.38
2018-11-03T10:01:52.299Z,102928.90
2018-11-03T10:04:21.400Z,102922.30
2018-11-03T10:06:50.411Z,102921.94
2018-11-03T10:09:19.452Z,102920.05
2018-11-03T10:11:49.652Z,102915.89
2018-11-03T10:14:18.670Z,102911.66
2018-11-03T10:16:47.926Z,102910.19
2018-11-03T10:19:17.488Z,102920.56
2018-11-03T10:21:46.566Z,102919.49
2018-11-03T10:24:15.646Z,102918.99
2018-11-03T10:26:44.722Z,102916.38
2018-11-03T10:29:13.801Z,102918.41
2018-11-03T10:31:42.902Z,102917.03
2018-11-03T10:34:12.115Z,102912.73
2018-11-03T10:36:41.211Z,102917.64
2018-11-03T10:39:11.755Z,102919.20
2018-11-03T10:41:41.717Z,102919.85
2018-11-03T10:44:11.110Z,102915.89
2018-11-03T10:46:40.234Z,102914.02
2018-11-03T10:49:09.273Z,102916.52
2018-11-03T10:51:38.317Z,102911.39
2018-11-03T10:54:07.663Z,102907.89
2018-11-03T10:56:36.714Z,102901.20
2018-11-03T10:59:05.767Z,102903.45
2018-11-03T11:01:40.025Z,102901.81
2018-11-03T11:04:14.945Z,102900.01
2018-11-03T11:06:49.259Z,102892.44
2018-11-03T11:09:23.610Z,102891.66
2018-11-03T11:11:58.857Z,102892.44
2018-11-03T11:14:27.898Z,102887.41
2018-11-03T11:16:57.020Z,102881.47
2018-11-03T11:19:26.018Z,102881.64
2018-11-03T11:21:56.535Z,102871.05
2018-11-03T11:24:25.636Z,102871.25
2018-11-03T11:26:54.599Z,102869.12
2018-11-03T11:29:23.706Z,102861.13
2018-11-03T11:31:54.683Z,102856.87
2018-11-03T11:34:23.747Z,102857.94
2018-11-03T11:36:53.216Z,102855.84
2018-11-03T11:39:22.300Z,102844.11
2018-11-03T11:41:51.351Z,102844.77
2018-11-03T11:44:21.107Z,102831.39
2018-11-03T11:46:50.231Z,102832.14
2018-11-03T11:49:19.362Z,102829.05
2018-11-03T11:54:40.837Z,102829.69
2018-11-03T11:57:10.400Z,102820.80
2018-11-03T11:59:39.463Z,102816.05
2018-11-03T12:02:10.719Z,102815.24
2018-11-03T12:04:40.444Z,102817.09
2018-11-03T12:07:09.666Z,102811.28
2018-11-03T12:09:39.086Z,102809.78
2018-11-03T12:12:08.320Z,102806.23
2018-11-03T12:14:37.455Z,102802.39
2018-11-03T12:17:07.134Z,102794.66
2018-11-03T12:19:36.273Z,102797.04
2018-11-03T12:22:05.671Z,102789.98
2018-11-03T12:24:49.968Z,102781.00
2018-11-03T12:27:19.233Z,102771.70
2018-11-03T12:29:49.041Z,102766.56
2018-11-03T12:32:24.729Z,102757.33
2018-11-03T12:34:54.314Z,102756.48
2018-11-03T12:37:23.480Z,102756.14
2018-11-03T12:39:52.685Z,102747.45
2018-11-03T12:42:22.057Z,102744.16
2018-11-03T12:44:51.144Z,102738.69
2018-11-03T12:47:20.284Z,102736.42
2018-11-03T12:49:49.397Z,102733.54
2018-11-03T12:52:18.514Z,102740.26
2018-11-03T12:54:47.917Z,102733.01
2018-11-03T12:57:17.090Z,102730.30
2018-11-03T12:59:46.173Z,102729.02
2018-11-03T13:02:15.305Z,102728.45
2018-11-03T13:04:44.444Z,102727.84
2018-11-03T13:07:13.646Z,102729.76
2018-11-03T13:09:42.990Z,102726.66
2018-11-03T13:12:12.066Z,102718.31
2018-11-03T13:14:41.483Z,102718.57
2018-11-03T13:17:10.543Z,102714.45
2018-11-03T13:19:39.652Z,102712.23
2018-11-03T13:22:08.914Z,102711.56
2018-11-03T13:24:39.012Z,102707.41
2018-11-03T13:27:08.353Z,102703.91
2018-11-03T13:29:37.425Z,102707.69
2018-11-03T13:32:06.667Z,102699.05
2018-11-03T13:34:35.715Z,102698.36
2018-11-03T13:37:04.870Z,102694.48
2018-11-03T13:39:34.106Z,102687.00
2018-11-03T13:42:03.215Z,102686.30
2018-11-03T13:44:32.270Z,102677.13
2018-11-03T13:47:01.497Z,102682.45
2018-11-03T13:49:30.583Z,102675.13
2018-11-03T13:51:59.959Z,102675.69
2018-11-03T13:54:29.029Z,102655.72
2018-11-03T13:56:58.137Z,102664.53
2018-11-03T13:59:27.220Z,102673.22
2018-11-03T14:01:56.389Z,102668.38
2018-11-03T14:04:25.580Z,102677.05
2018-11-03T14:06:55.462Z,102663.59
2018-11-03T14:09:24.582Z,102664.52
2018-11-03T14:11:55.352Z,102664.03
2018-11-03T14:14:25.147Z,102665.81
2018-11-03T14:16:54.938Z,102658.77
2018-11-03T14:19:24.538Z,102659.56
2018-11-03T14:21:53.735Z,102650.58
2018-11-03T14:24:23.167Z,102654.78
2018-11-03T14:26:52.289Z,102654.80
2018-11-03T14:29:21.410Z,102652.25
2018-11-03T14:31:50.960Z,102645.25
2018-11-03T14:34:20.155Z,102644.98
2018-11-03T14:36:50.099Z,102645.22
2018-11-03T14:39:19.187Z,102650.18
2018-11-03T14:41:48.307Z,102637.97
2018-11-03T14:44:17.483Z,102644.18
2018-11-03T14:46:46.596Z,102639.45
2018-11-03T14:49:15.926Z,102627.65
2018-11-03T14:51:45.133Z,102626.31
2018-11-03T14:54:15.261Z,102625.53
2018-11-03T14:56:44.515Z,102618.91
2018-11-03T14:59:13.963Z,102619.65
2018-11-03T15:01:43.761Z,102619.30
2018-11-03T15:04:14.011Z,102616.50
2018-11-03T15:06:43.988Z,102617.52
2018-11-03T15:09:18.012Z,102616.23
2018-11-03T15:11:47.135Z,102613.53
2018-11-03T15:14:18.872Z,102605.11
2018-11-03T15:16:48.357Z,102605.91
2018-11-03T15:19:20.972Z,102603.97
2018-11-03T15:21:50.272Z,102605.52
2018-11-03T15:24:20.298Z,102604.38
2018-11-03T15:26:49.379Z,102601.38
2018-11-03T15:29:18.545Z,102598.75
2018-11-03T15:31:47.709Z,102597.22
2018-11-03T15:34:16.940Z,102597.80
2018-11-03T15:36:46.039Z,102599.13
2018-11-03T15:39:15.147Z,102595.07
2018-11-03T15:41:44.366Z,102597.14
2018-11-03T15:44:13.519Z,102591.63
2018-11-03T15:46:43.149Z,102586.95
2018-11-03T15:49:12.379Z,102596.59
2018-11-03T15:51:42.020Z,102588.03
2018-11-03T15:54:11.822Z,102584.91
2018-11-03T15:56:40.983Z,102579.81
2018-11-03T15:59:10.142Z,102582.02
2018-11-03T16:01:39.314Z,102580.73
2018-11-03T16:04:08.482Z,102578.30
2018-11-03T16:06:37.702Z,102570.08
2018-11-03T16:09:09.611Z,102573.53
2018-11-03T16:11:39.152Z,102574.91
2018-11-03T16:14:08.801Z,102571.08
2018-11-03T16:16:38.845Z,102562.74
2018-11-03T16:19:08.661Z,102562.05
2018-11-03T16:21:37.863Z,102563.81
2018-11-03T16:24:09.754Z,102555.91
2018-11-03T16:26:38.951Z,102552.39
2018-11-03T16:29:08.010Z,102552.09
2018-11-03T16:31:37.015Z,102554.75
2018-11-03T16:34:06.160Z,102550.61
2018-11-03T16:36:35.209Z,102548.11
2018-11-03T16:39:05.359Z,102548.14
2018-11-03T16:41:34.896Z,102549.95
2018-11-03T16:44:04.779Z,102552.75
2018-11-03T16:46:33.879Z,102554.50
2018-11-03T16:49:02.938Z,102551.30
2018-11-03T16:51:31.993Z,102552.23
2018-11-03T16:54:01.047Z,102551.02
2018-11-03T16:56:30.467Z,102543.95
2018-11-03T16:58:59.567Z,102547.58
2018-11-03T17:01:28.657Z,102540.08
2018-11-03T17:03:58.404Z,102543.14
2018-11-03T17:06:27.550Z,102540.83
2018-11-03T17:08:56.631Z,102535.82
2018-11-03T17:11:25.692Z,102533.07
2018-11-03T17:13:54.752Z,102530.60
2018-11-03T17:16:23.878Z,102532.43
2018-11-03T17:18:53.089Z,102530.86
2018-11-03T17:21:22.002Z,102521.20
2018-11-03T17:23:51.068Z,102521.70
2018-11-03T17:26:20.148Z,102522.22
2018-11-03T17:28:49.262Z,102521.02
2018-11-03T17:31:18.381Z,102521.61
2018-11-03T17:33:48.397Z,102517.87
2018-11-03T17:36:17.697Z,102513.70
2018-11-03T17:38:46.753Z,102509.52
2018-11-03T17:41:17.322Z,102515.20
2018-11-03T17:43:46.896Z,102516.91
2018-11-03T17:50:11.323Z,102509.04
2018-11-03T18:03:13.423Z,102497.54
2018-11-03T18:13:48.079Z,102488.53
2018-11-03T18:16:39.702Z,102482.24
2018-11-03T18:19:08.834Z,102483.68
2018-11-03T18:21:48.984Z,102477.30
2018-11-03T18:24:34.498Z,102476.88
2018-11-03T18:27:14.411Z,102472.28
2018-11-03T18:30:02.208Z,102468.89
2018-11-03T18:38:58.925Z,102471.98
2018-11-03T18:41:40.309Z,102475.44
2018-11-03T18:44:27.027Z,102476.80
2018-11-03T18:47:06.042Z,102473.35
2018-11-03T18:49:38.191Z,102469.63
2018-11-03T18:54:51.247Z,102473.47
2018-11-03T18:57:33.993Z,102478.16
2018-11-03T19:00:35.062Z,102473.59
2018-11-03T19:03:16.302Z,102478.72
2018-11-03T19:06:02.554Z,102476.19
2018-11-03T19:11:32.207Z,102475.03
2018-11-03T19:14:04.847Z,102465.36
2018-11-03T19:16:59.942Z,102464.59
2018-11-03T19:19:35.466Z,102465.92
2018-11-03T19:22:04.646Z,102455.34
2018-11-03T19:24:36.187Z,102458.33
2018-11-03T19:27:08.234Z,102456.25
2018-11-03T19:29:37.330Z,102447.02
2018-11-03T19:32:06.973Z,102441.56
2018-11-03T19:34:35.979Z,102444.97
2018-11-03T19:37:05.080Z,102440.39
2018-11-03T19:39:34.163Z,102439.13
2018-11-03T19:42:03.266Z,102434.16
2018-11-03T19:44:32.346Z,102433.36
2018-11-03T19:47:01.773Z,102434.17
2018-11-03T19:49:30.879Z,102439.30
2018-11-03T19:51:59.943Z,102435.98
2018-11-03T19:54:29.022Z,102433.95
2018-11-03T19:56:58.059Z,102426.34
2018-11-03T19:59:27.467Z,102422.16
2018-11-03T20:01:57.361Z,102420.06
2018-11-03T20:04:27.005Z,102414.22
2018-11-03T20:06:56.068Z,102415.48
2018-11-03T20:09:25.142Z,102415.95
2018-11-03T20:11:54.231Z,102415.12
2018-11-03T20:14:23.333Z,102406.30
2018-11-03T20:16:54.109Z,102415.62
2018-11-03T20:19:23.151Z,102410.55
2018-11-03T20:21:52.265Z,102403.44
2018-11-03T20:24:21.552Z,102405.98
2018-11-03T20:27:00.653Z,102398.01
2018-11-03T20:29:29.707Z,102402.69
2018-11-03T20:31:58.950Z,102402.70
2018-11-03T20:37:12.474Z,102394.77
2018-11-03T20:39:41.476Z,102392.66
2018-11-03T20:42:10.558Z,102393.52
2018-11-03T20:44:39.615Z,102393.11
2018-11-03T20:47:08.675Z,102393.15
2018-11-03T20:49:38.043Z,102392.75
2018-11-03T20:52:07.146Z,102388.99
2018-11-03T20:54:36.179Z,102393.63
2018-11-03T20:57:05.331Z,102392.37
2018-11-03T20:59:34.396Z,102389.06
2018-11-03T21:02:04.435Z,102388.63
2018-11-03T21:04:33.456Z,102381.48
2018-11-03T21:07:02.697Z,102382.34
2018-11-03T21:09:31.756Z,102378.13
2018-11-03T21:12:00.896Z,102379.43
2018-11-03T21:14:29.961Z,102376.98
2018-11-03T21:16:59.017Z,102374.45
2018-11-03T21:19:29.183Z,102372.76
2018-11-03T21:21:58.230Z,102368.14
2018-11-03T21:24:27.278Z,102367.33
2018-11-03T21:27:28.737Z,102363.96
2018-11-03T21:29:57.858Z,102357.69
2018-11-03T21:32:26.928Z,102347.13
2018-11-03T21:34:55.992Z,102345.04
2018-11-03T21:37:25.045Z,102337.05
2018-11-03T21:39:54.498Z,102328.63
2018-11-03T21:42:23.531Z,102329.06
2018-11-03T21:44:52.556Z,102329.06
2018-11-03T21:47:24.109Z,102319.41
2018-11-03T21:49:53.174Z,102316.43
2018-11-03T21:52:22.250Z,102307.63
2018-11-03T21:54:51.314Z,102309.75
2018-11-03T21:57:20.359Z,102303.88
2018-11-03T21:59:49.363Z,102300.09
2018-11-03T22:02:18.405Z,102300.12
2018-11-03T22:04:47.474Z,102293.78
2018-11-03T22:07:16.934Z,102282.45
2018-11-03T22:09:46.023Z,102282.02
2018-11-03T22:12:15.051Z,102284.57
2018-11-03T22:14:44.063Z,102277.84
2018-11-03T22:17:13.110Z,102275.33
2018-11-03T22:19:42.181Z,102271.13
2018-11-03T22:22:11.242Z,102262.72
2018-11-03T22:24:40.287Z,102251.77
2018-11-03T22:27:10.265Z,102250.11
2018-11-03T22:29:39.274Z,102247.98
2018-11-03T22:32:08.291Z,102245.89
2018-11-03T22:34:37.369Z,102245.04
2018-11-03T22:37:06.417Z,102242.92
2018-11-03T22:39:35.469Z,102248.38
2018-11-03T22:42:04.686Z,102240.78
2018-11-03T22:44:33.802Z,102233.19
2018-11-03T22:47:02.963Z,102232.34
2018-11-03T22:49:32.029Z,102234.43
2018-11-03T22:52:01.808Z,102229.39
2018-11-03T22:54:31.399Z,102219.67
2018-11-03T22:57:01.424Z,102209.57
2018-11-03T22:59:30.456Z,102205.31
2018-11-03T23:01:59.534Z,102208.67
2018-11-03T23:04:28.567Z,102199.42
2018-11-03T23:06:57.681Z,102202.33
2018-11-03T23:09:26.702Z,102196.88
2018-11-03T23:11:55.769Z,102196.89
2018-11-03T23:14:25.441Z,102188.00
2018-11-03T23:16:54.521Z,102185.03
2018-11-03T23:19:23.604Z,102180.84
2018-11-03T23:21:52.624Z,102182.09
2018-11-03T23:24:21.665Z,102177.91
2018-11-03T23:26:50.768Z,102177.48
2018-11-03T23:29:19.813Z,102173.30
2018-11-03T23:31:48.834Z,102166.15
2018-11-03T23:34:17.931Z,102158.98
2018-11-03T23:36:46.991Z,102157.34
2018-11-03T23:39:16.054Z,102154.02
2018-11-03T23:41:45.116Z,102150.27
2018-11-03T23:44:14.790Z,102151.05
2018-11-03T23:46:43.846Z,102143.06
2018-11-03T23:49:13.322Z,102130.84
2018-11-03T23:51:42.357Z,102127.92
2018-11-03T23:54:11.479Z,102124.55
2018-11-03T23:56:40.526Z,102122.87
2018-11-03T23:59:09.564Z,102116.14
